createdAt,value
2017-07-30T00:05:11.037Z,20.6
2017-07-30T00:15:25.072Z,21
2017-07-30T00:25:39.333Z,21.3
2017-07-30T00:35:53.773Z,21.9
2017-07-30T00:46:08.747Z,20.8
2017-07-30T00:56:24.490Z,20.5
2017-07-30T01:06:39.954Z,20.1
2017-07-30T01:16:55.634Z,20
2017-07-30T01:27:10.960Z,19.7
2017-07-30T01:37:25.804Z,19.4
2017-07-30T01:47:40.846Z,19.3
2017-07-30T01:57:55.756Z,19.2
2017-07-30T02:08:10.896Z,19.3
2017-07-30T02:18:26.336Z,19.2
2017-07-30T02:28:40.244Z,19.2
2017-07-30T02:38:54.231Z,19.3
2017-07-30T02:49:08.074Z,19.3
2017-07-30T02:59:22.940Z,19.4
2017-07-30T03:09:40.145Z,19.6
2017-07-30T03:19:51.841Z,19.5
2017-07-30T03:30:05.850Z,19.4
2017-07-30T03:40:19.718Z,19.4
2017-07-30T03:50:34.499Z,19.4
2017-07-30T04:00:49.822Z,19.4
2017-07-30T04:11:04.676Z,20.1
2017-07-30T04:21:18.825Z,19.8
2017-07-30T04:31:34.185Z,20.3
2017-07-30T04:41:48.906Z,20.5
2017-07-30T04:52:03.666Z,20.8
2017-07-30T05:02:19.126Z,21
2017-07-30T05:12:34.487Z,21.2
2017-07-30T05:22:49.539Z,21.3
2017-07-30T05:33:04.829Z,21.8
2017-07-30T05:43:20.193Z,22
2017-07-30T05:53:34.867Z,22.3
2017-07-30T06:03:49.397Z,22.4
2017-07-30T06:14:03.486Z,22.8
2017-07-30T06:24:19.281Z,23.1
2017-07-30T06:34:33.249Z,23.5
2017-07-30T06:44:47.732Z,24
2017-07-30T06:55:01.886Z,24.2
2017-07-30T07:05:17.052Z,24.3
2017-07-30T07:15:31.973Z,24.1
2017-07-30T07:25:46.649Z,24.3
2017-07-30T07:36:00.601Z,24.9
2017-07-30T07:46:16.633Z,24.6
2017-07-30T07:56:31.668Z,24.4
2017-07-30T08:06:46.474Z,24.1
2017-07-30T08:17:01.927Z,24.8
2017-07-30T08:27:15.694Z,24.2
2017-07-30T08:37:31.139Z,24.3
2017-07-30T08:47:47.390Z,24.3
2017-07-30T08:58:00.713Z,24.5
2017-07-30T09:08:14.675Z,23.7
2017-07-30T09:18:29.078Z,24
2017-07-30T09:28:43.678Z,25.1
2017-07-30T09:38:57.594Z,26.8
2017-07-30T09:49:12.310Z,26.8
2017-07-30T09:59:26.412Z,25.7
2017-07-30T10:09:41.990Z,26.3
2017-07-30T10:19:57.910Z,26.2
2017-07-30T10:30:11.334Z,25.7
2017-07-30T10:40:25.448Z,25
2017-07-30T10:50:40.253Z,25.7
2017-07-30T11:00:54.464Z,26.7
2017-07-30T11:11:09.975Z,26.3
2017-07-30T11:21:24.516Z,26.4
2017-07-30T11:31:39.716Z,26.4
2017-07-30T11:41:55.187Z,26.8
2017-07-30T11:52:10.698Z,27.2
2017-07-30T12:02:24.785Z,27.3
2017-07-30T12:12:40.633Z,27.1
2017-07-30T12:22:55.526Z,26.6
2017-07-30T12:33:10.026Z,26.5
2017-07-30T12:43:24.437Z,26.2
2017-07-30T12:53:40.523Z,26.7
2017-07-30T13:03:55.058Z,26.7
2017-07-30T13:14:10.907Z,26.7
2017-07-30T13:24:25.825Z,26.4
2017-07-30T13:34:41.206Z,26.7
2017-07-30T13:44:57.047Z,26.3
2017-07-30T13:55:11.976Z,25.3
2017-07-30T14:05:26.630Z,26.3
2017-07-30T14:15:40.383Z,26.7
2017-07-30T14:25:54.483Z,27.7
2017-07-30T14:36:09.155Z,26.3
2017-07-30T14:46:24.038Z,25.1
2017-07-30T14:56:39.844Z,25.8
2017-07-30T15:06:54.139Z,27.4
2017-07-30T15:17:08.195Z,27.2
2017-07-30T15:27:22.629Z,27.5
2017-07-30T15:37:38.058Z,26.9
2017-07-30T15:47:52.170Z,26.8
2017-07-30T15:58:06.709Z,26
2017-07-30T16:08:21.409Z,25.9
2017-07-30T16:18:38.179Z,25.7
2017-07-30T16:28:52.032Z,25.3
2017-07-30T16:39:06.359Z,25.6
2017-07-30T16:49:20.784Z,25.3
2017-07-30T16:59:38.366Z,25.2
2017-07-30T17:09:51.061Z,25
2017-07-30T17:20:06.484Z,24.1
2017-07-30T17:30:21.280Z,24.6
2017-07-30T17:40:34.944Z,23.9
2017-07-30T17:50:50.118Z,22.8
2017-07-30T18:01:04.381Z,22.3
2017-07-30T18:11:19.303Z,22.3
2017-07-30T18:21:34.575Z,21.7
2017-07-30T18:31:48.908Z,21.4
2017-07-30T18:42:03.329Z,21.3
2017-07-30T18:52:17.898Z,21
2017-07-30T19:02:33.054Z,20.7
2017-07-30T19:12:47.455Z,20.3
2017-07-30T19:23:02.286Z,19.6
2017-07-30T19:33:18.557Z,19
2017-07-30T19:43:31.803Z,18.9
2017-07-30T19:53:46.378Z,19.2
2017-07-30T20:04:01.228Z,18.9
2017-07-30T20:14:14.771Z,18.5
2017-07-30T20:24:28.865Z,18.5
2017-07-30T20:34:44.283Z,18.5
2017-07-30T20:44:58.460Z,18.5
2017-07-30T20:55:13.454Z,18.4
2017-07-30T21:05:28.626Z,17.8
2017-07-30T21:15:44.113Z,17.8
2017-07-30T21:25:59.226Z,17.8
2017-07-30T21:36:14.924Z,17.9
2017-07-30T21:46:29.444Z,18.1
2017-07-30T21:56:44.277Z,18
2017-07-30T22:06:59.700Z,17.9
2017-07-30T22:17:14.787Z,18.2
2017-07-30T22:27:29.476Z,18.4
2017-07-30T22:37:43.603Z,17.9
2017-07-30T22:47:57.666Z,17.6
2017-07-30T22:58:11.778Z,18
2017-07-30T23:08:27.397Z,17.6
2017-07-30T23:18:43.050Z,17.2
2017-07-30T23:28:57.549Z,17.2
2017-07-30T23:39:11.840Z,17
2017-07-30T23:49:27.365Z,17
2017-07-30T23:59:41.921Z,16.9
